Crystal, North Dakota
Current Conditions -  °F | °C
As of 3:35 AM on Saturday 29 Nov 2014 (Local Time) from K2C8 Reporting Station
Overcast Overcast  
Wind Chill: 11°   Ceiling: 1100
Heat Index: 18°   Visibility: 8mi
Dew Point: 14°   Wind: 5mph
Humidity: 86%   Direction: 140°SE
Pressure: 29.48"   Gusts: NA
Location:  48.6°N, 97.67°W
Report Text: K2C8 290935Z AUTO 14004KT 8SM OVC011 M08/M10 A2948 RMK AO2
Loading
Personal Weather Stations






























Interactive Weather Map New forecast layout! Learn more

10-Day Weather Forecast

Advertisements
Track Severe Weather on mobile